createdAt,value
2023-01-29T00:13:45.347Z,1
2023-01-29T00:42:57.973Z,0.9
2023-01-29T01:12:14.325Z,0.9
2023-01-29T01:41:23.530Z,0.8
2023-01-29T02:10:46.758Z,0.6
2023-01-29T02:40:04.957Z,0.5
2023-01-29T03:09:22.521Z,0.5
2023-01-29T03:38:47.695Z,0.4
2023-01-29T04:08:05.318Z,0.4
2023-01-29T04:37:20.879Z,0.3
2023-01-29T05:06:35.127Z,0.3
2023-01-29T05:35:50.495Z,0.2
2023-01-29T06:05:12.695Z,0.1
2023-01-29T06:34:37.406Z,0
2023-01-29T07:03:56.105Z,-0.1
2023-01-29T07:33:17.410Z,0
2023-01-29T08:02:34.586Z,0.2
2023-01-29T08:31:51.665Z,0.4
2023-01-29T09:01:10.073Z,0.6
2023-01-29T09:30:22.813Z,0.9
2023-01-29T09:59:42.372Z,1.5
2023-01-29T10:28:55.689Z,2.3
2023-01-29T10:58:14.103Z,2.8
2023-01-29T11:27:38.147Z,2.8
2023-01-29T11:57:02.695Z,3.6
2023-01-29T12:26:16.691Z,4.1
2023-01-29T12:55:25.008Z,4.4
2023-01-29T13:24:41.728Z,5
2023-01-29T13:53:29.634Z,4.6
2023-01-29T14:22:47.720Z,3.8
2023-01-29T14:51:56.658Z,3.5
2023-01-29T15:21:10.103Z,3.1
2023-01-29T15:50:26.882Z,2.6
2023-01-29T16:19:37.659Z,1.9
2023-01-29T16:48:43.783Z,1.4
2023-01-29T17:17:52.832Z,0.8
2023-01-29T17:47:09.064Z,0.3
2023-01-29T18:16:26.881Z,-0.2
2023-01-29T18:45:37.201Z,-0.6
2023-01-29T19:14:51.760Z,-1
2023-01-29T19:44:05.178Z,-1
2023-01-29T20:13:21.753Z,-1.3
2023-01-29T20:42:41.861Z,-1.4
2023-01-29T21:12:05.811Z,-1.6
2023-01-29T21:41:24.494Z,-1.6
2023-01-29T22:10:32.049Z,-1.8
2023-01-29T22:39:36.823Z,-1.9
2023-01-29T23:08:50.530Z,-2.2
2023-01-29T23:38:05.192Z,-2.2
